METAR Data
IDs: Format: Raw Decoded Include TAF

Data at: 1721 UTC 24 Aug 2019

PPIT 241656Z AUTO 36008KT 10SM BKN039 11/11 A2984 RMK AO2 SLP103 T01060106 TSNO
PPIT 241556Z AUTO 35008KT 10SM BKN037 09/09 A2983 RMK AO2 SLP100 T00940094 TSNO
PPIT 241456Z AUTO 36007KT 10SM FEW037 09/09 A2982 RMK AO2 SLP097 T00890089 53007 TSNO
PPIT 241356Z AUTO 36007KT 10SM CLR 09/09 A2981 RMK AO2 SLP094 T00890089 TSNO
PPIT 241256Z AUTO 36008KT 10SM CLR 09/09 A2981 RMK AO2 SLP093 T00890089 TSNO
PPIT 241156Z AUTO 36009KT 10SM CLR 09/09 A2980 RMK AO2 SLP090 T00940094 10139 20094 51006 TSNO
PPIT 241056Z AUTO 36008KT 10SM CLR 09/09 A2979 RMK AO2 SLP089 T00940094 TSNO
PPIT 240956Z AUTO 35009KT 10SM CLR 11/09 A2979 RMK AO2 SLP087 T01110094 TSNO
PPIT 240856Z AUTO 34012KT 10SM CLR 12/09 A2978 RMK AO2 SLP084 T01170094 401670094 52014 TSNO
PPIT 240756Z AUTO 35011KT 10SM CLR 12/09 A2977 RMK AO2 SLP080 T01220094 TSNO
PPIT 240656Z AUTO 35012KT 10SM OVC045 13/09 A2975 RMK AO2 SLP075 T01330094 TSNO
PPIT 240556Z AUTO 34011KT 10SM CLR 14/10 A2974 RMK AO2 SLP070 T01390100 10167 20139 53006 TSNO
PPIT 240456Z AUTO 33011KT 10SM CLR 14/10 A2973 RMK AO2 SLP067 T01440100 TSNO
PPIT 240356Z AUTO 34013KT 10SM CLR 16/09 A2972 RMK AO2 SLP066 T01560094 TSNO
PPIT 240256Z AUTO 33011KT 10SM CLR 16/08 A2972 RMK AO2 SLP065 T01610078 56003 TSNO
PPIT 240156Z AUTO 33011KT 10SM CLR 17/09 A2972 RMK AO2 SLP065 T01670089 TSNO
PPIT 240056Z AUTO 33010KT 10SM CLR 16/08 A2973 RMK AO2 SLP066 T01610083 TSNO
PPIT 232356Z AUTO 35013KT 10SM CLR 17/09 A2973 RMK AO2 SLP068 T01670089 10167 20106 50001 TSNO
PPIT 232256Z AUTO 35011KT 10SM CLR 16/09 A2973 RMK AO2 SLP068 T01610089 TSNO
PPIT 232156Z AUTO 35012KT 10SM CLR 15/09 A2973 RMK AO2 SLP067 T01500089 TSNO
PPIT 232056Z AUTO 01010KT 10SM CLR 14/10 A2973 RMK AO2 SLP067 T01440100 51005 TSNO
PPIT 231956Z AUTO 01008KT 10SM CLR 12/11 A2972 RMK AO2 SLP065 T01220106 TSNO
PPIT 231856Z AUTO 34010KT 10SM SCT006 BKN080 11/10 A2972 RMK AO2 SLP063 T01060100 TSNO
PPIT 231836Z AUTO 34008KT 10SM SCT006 BKN070 11/10 A2972 RMK AO2 TSNO
PPIT 231756Z AUTO 35007KT 10SM OVC065 11/10 A2971 RMK AO2 SLP061 T01060100 10106 20094 51003 TSNO
PPIT 231656Z AUTO 35007KT 10SM FEW060 SCT080 10/10 A2971 RMK AO2 SLP060 T01000100 TSNO
PPIT 231556Z AUTO 35010KT 10SM CLR 09/09 A2971 RMK AO2 SLP060 T00940094 TSNO
PPIT 231456Z AUTO 34009KT 10SM CLR 09/09 A2970 RMK AO2 SLP058 T00940094 51006 TSNO
PPIT 231356Z AUTO 35007KT 10SM FEW080 09/09 A2970 RMK AO2 SLP057 T00940094 TSNO
PPIT 231256Z AUTO 35008KT 10SM SCT070 10/10 A2969 RMK AO2 SLP053 T01000100 TSNO
PPIT 231156Z AUTO 36008KT 10SM CLR 10/10 A2968 RMK AO2 SLP051 T01000100 10150 20100 51005 TSNO
PPIT 231056Z AUTO 36008KT 10SM CLR 11/11 A2968 RMK AO2 SLP051 T01060106 TSNO
PPIT 230956Z AUTO 36009KT 10SM CLR 11/11 A2968 RMK AO2 SLP049 T01110111 TSNO
PPIT 230856Z AUTO 35009KT 10SM CLR 12/12 A2967 RMK AO2 SLP047 T01220117 401780094 53005 TSNO
PPIT 230756Z AUTO 27006KT 10SM CLR 12/11 A2966 RMK AO2 SLP044 T01170111 TSNO
PPIT 230656Z AUTO 23004KT 10SM CLR 13/11 A2965 RMK AO2 SLP041 T01280106 TSNO
PPIT 230556Z AUTO 21004KT 10SM CLR 15/10 A2965 RMK AO2 SLP041 T01500100 10178 20150 55000 TSNO